createdAt,value
2023-11-16T00:01:03.110Z,99891.94
2023-11-16T00:03:29.740Z,99867.84
2023-11-16T00:05:56.742Z,99885.06
2023-11-16T00:08:23.255Z,99891.91
2023-11-16T00:10:50.118Z,99890.16
2023-11-16T00:13:16.811Z,99884.13
2023-11-16T00:15:43.439Z,99885.81
2023-11-16T00:18:10.470Z,99882.38
2023-11-16T00:20:39.695Z,99884.09
2023-11-16T00:23:06.323Z,99884.06
2023-11-16T00:25:32.881Z,99891.81
2023-11-16T00:28:00.689Z,99880.56
2023-11-16T00:30:27.884Z,99888.31
2023-11-16T00:32:54.890Z,99901.25
2023-11-16T00:35:22.312Z,99894.34
2023-11-16T00:37:52.205Z,99909.03
2023-11-16T00:40:19.142Z,99896.94
2023-11-16T00:42:45.699Z,99905.56
2023-11-16T00:45:12.272Z,99901.22
2023-11-16T00:47:40.633Z,99909.81
2023-11-16T00:50:09.058Z,99906.41
2023-11-16T00:52:35.689Z,99896.06
2023-11-16T00:55:02.593Z,99897.78
2023-11-16T00:57:29.769Z,99909.81
2023-11-16T00:59:56.861Z,99901.22
2023-11-16T01:02:23.378Z,99910.72
2023-11-16T01:04:49.931Z,99891.78
2023-11-16T01:07:16.457Z,99897.78
2023-11-16T01:09:43.945Z,99912.53
2023-11-16T01:12:16.653Z,99914.25
2023-11-16T01:14:44.420Z,99894.47
2023-11-16T01:17:19.785Z,99916.78
2023-11-16T01:19:48.143Z,99911.63
2023-11-16T01:22:17.348Z,99905.56
2023-11-16T01:24:46.847Z,99883.19
2023-11-16T01:27:19.358Z,99904.72
2023-11-16T01:29:46.849Z,99912.50
2023-11-16T01:32:14.628Z,99909.91
2023-11-16T01:34:43.231Z,99917.69
2023-11-16T01:37:10.694Z,99915.94
2023-11-16T01:39:40.562Z,99913.41
2023-11-16T01:42:10.847Z,99925.50
2023-11-16T01:44:38.318Z,99930.69
2023-11-16T01:47:09.422Z,99926.41
2023-11-16T01:49:36.806Z,99935.03
2023-11-16T01:52:05.304Z,99931.59
2023-11-16T01:54:33.175Z,99934.16
2023-11-16T01:57:00.223Z,99937.63
2023-11-16T01:59:29.225Z,99939.34
2023-11-16T02:01:58.065Z,99946.25
2023-11-16T02:04:25.375Z,99954.88
2023-11-16T02:06:54.729Z,99949.69
2023-11-16T02:09:22.708Z,99953.13
2023-11-16T02:11:49.308Z,99958.31
2023-11-16T02:14:15.794Z,99956.56
2023-11-16T02:16:42.491Z,99964.31
2023-11-16T02:19:29.816Z,99964.31
2023-11-16T02:21:56.755Z,99959.16
2023-11-16T02:24:23.584Z,99960.03
2023-11-16T02:26:52.036Z,99960.03
2023-11-16T02:29:18.636Z,99962.63
2023-11-16T02:31:45.115Z,99959.16
2023-11-16T02:34:12.103Z,99960.91
2023-11-16T02:36:38.694Z,99950.53
2023-11-16T02:39:07.963Z,99960.91
2023-11-16T02:41:35.609Z,99966.06
2023-11-16T02:44:02.124Z,99968.63
2023-11-16T02:46:28.646Z,99958.28
2023-11-16T02:48:55.236Z,99963.44
2023-11-16T02:51:21.853Z,99970.34
2023-11-16T02:53:48.383Z,99935.88
2023-11-16T02:56:14.932Z,99971.19
2023-11-16T02:58:45.244Z,99968.59
2023-11-16T03:01:14.173Z,99970.34
2023-11-16T03:03:41.781Z,99971.19
2023-11-16T03:06:09.815Z,99966.00
2023-11-16T03:08:37.022Z,99970.31
2023-11-16T03:11:04.365Z,99982.38
2023-11-16T03:13:31.125Z,99984.09
2023-11-16T03:15:57.838Z,99990.09
2023-11-16T03:18:24.791Z,99990.09
2023-11-16T03:20:51.376Z,99997.00
2023-11-16T03:23:17.997Z,99999.59
2023-11-16T03:25:44.793Z,100000.47
2023-11-16T03:28:11.517Z,100003.06
2023-11-16T03:30:39.656Z,100001.31
2023-11-16T03:33:10.009Z,100003.03
2023-11-16T03:35:37.055Z,100013.38
2023-11-16T03:38:04.158Z,100007.34
2023-11-16T03:40:31.869Z,100005.66
2023-11-16T03:42:58.863Z,100000.47
2023-11-16T03:45:25.551Z,100003.91
2023-11-16T03:47:52.383Z,100008.19
2023-11-16T03:50:19.205Z,100011.66
2023-11-16T03:52:46.580Z,99997.88
2023-11-16T03:55:14.237Z,100004.75
2023-11-16T03:57:41.551Z,100016.81
2023-11-16T04:00:09.454Z,100019.41
2023-11-16T04:02:37.115Z,100017.66
2023-11-16T04:05:06.306Z,100019.34
2023-11-16T04:07:35.391Z,100020.19
2023-11-16T04:10:03.241Z,100022.78
2023-11-16T04:14:56.285Z,100019.34
2023-11-16T04:17:22.909Z,100010.75
2023-11-16T04:19:49.664Z,100009.88
2023-11-16T04:22:16.440Z,100021.06
2023-11-16T04:24:43.147Z,100022.78
2023-11-16T04:27:09.913Z,100008.97
2023-11-16T04:29:36.463Z,100018.44
2023-11-16T04:32:03.092Z,100021.03
2023-11-16T04:34:29.730Z,100017.56
2023-11-16T04:36:57.727Z,100021.88
2023-11-16T04:39:24.393Z,100017.56
2023-11-16T04:41:50.940Z,100020.97
2023-11-16T04:44:17.444Z,100020.94
2023-11-16T04:46:47.548Z,100009.69
2023-11-16T04:49:15.055Z,100017.47
2023-11-16T04:51:42.181Z,100013.13
2023-11-16T04:54:08.983Z,100014.00
2023-11-16T04:56:37.713Z,100028.63
2023-11-16T04:59:07.142Z,100017.44
2023-11-16T05:01:33.715Z,100023.44
2023-11-16T05:04:00.375Z,100032.91
2023-11-16T05:06:27.027Z,100045.81
2023-11-16T05:08:53.569Z,100044.09
2023-11-16T05:11:26.042Z,100057.88
2023-11-16T05:13:52.928Z,100055.28
2023-11-16T05:16:19.766Z,100057.88
2023-11-16T05:18:47.563Z,100053.50
2023-11-16T05:21:17.726Z,100053.50
2023-11-16T05:23:45.010Z,100060.47
2023-11-16T05:26:12.206Z,100062.19
2023-11-16T05:28:38.922Z,100053.56
2023-11-16T05:31:05.871Z,100056.16
2023-11-16T05:33:35.620Z,100055.28
2023-11-16T05:36:02.375Z,100042.34
2023-11-16T05:38:29.143Z,100057.00
2023-11-16T05:40:55.756Z,100061.28
2023-11-16T05:43:22.542Z,100061.25
2023-11-16T05:45:49.583Z,100067.28
2023-11-16T05:48:16.952Z,100060.34
2023-11-16T05:50:44.503Z,100068.09
2023-11-16T05:53:12.388Z,100073.31
2023-11-16T05:55:39.262Z,100071.53
2023-11-16T05:58:07.140Z,100075.00
2023-11-16T06:00:38.147Z,100062.94
2023-11-16T06:03:06.119Z,100073.25
2023-11-16T06:05:37.321Z,100074.91
2023-11-16T06:08:04.462Z,100080.09
2023-11-16T06:10:31.506Z,100083.56
2023-11-16T06:13:00.597Z,100083.56
2023-11-16T06:15:29.941Z,100080.09
2023-11-16T06:17:59.267Z,100080.06
2023-11-16T06:20:26.113Z,100080.09
2023-11-16T06:22:52.717Z,100074.91
2023-11-16T06:25:19.368Z,100078.34
2023-11-16T06:27:47.726Z,100069.72
2023-11-16T06:30:14.964Z,100063.69
2023-11-16T06:32:43.437Z,100066.34
2023-11-16T06:35:13.303Z,100069.81
2023-11-16T06:37:39.879Z,100066.41
2023-11-16T06:40:10.803Z,100065.53
2023-11-16T06:42:39.033Z,100073.34
2023-11-16T06:45:06.942Z,100087.97
2023-11-16T06:47:35.255Z,100087.16
2023-11-16T06:50:04.564Z,100088.03
2023-11-16T06:52:31.681Z,100077.69
2023-11-16T06:54:58.281Z,100083.69
2023-11-16T06:57:27.666Z,100084.59
2023-11-16T06:59:54.714Z,100059.63
2023-11-16T07:02:24.140Z,100089.84
2023-11-16T07:04:50.847Z,100093.28
2023-11-16T07:07:18.155Z,100076.88
2023-11-16T07:09:50.811Z,100106.25
2023-11-16T07:12:21.872Z,100101.97
2023-11-16T07:14:54.377Z,100100.28
2023-11-16T07:17:22.303Z,100105.50
2023-11-16T07:19:50.151Z,100101.22
2023-11-16T07:22:16.853Z,100101.25
2023-11-16T07:24:45.540Z,100105.56
2023-11-16T07:27:13.307Z,100104.69
2023-11-16T07:29:45.082Z,100106.44
2023-11-16T07:32:13.087Z,100103.03
2023-11-16T07:34:40.922Z,100116.88
2023-11-16T07:37:08.130Z,100116.88
2023-11-16T07:39:35.575Z,100114.28
2023-11-16T07:42:02.179Z,100118.56
2023-11-16T07:44:28.712Z,100113.44
2023-11-16T07:46:55.543Z,100118.59
2023-11-16T07:49:22.431Z,100118.59
2023-11-16T07:51:49.019Z,100118.59
2023-11-16T07:54:16.989Z,100110.88
2023-11-16T07:56:56.378Z,100107.44
2023-11-16T07:59:31.929Z,100110.00
2023-11-16T08:02:03.137Z,100115.19
2023-11-16T08:04:33.168Z,100105.69
2023-11-16T08:07:01.533Z,100114.31
2023-11-16T08:09:28.225Z,100114.28
2023-11-16T08:11:59.307Z,100113.44
2023-11-16T08:14:27.016Z,100103.94
2023-11-16T08:16:57.950Z,100112.53
2023-11-16T08:19:26.805Z,100104.75
2023-11-16T08:21:58.304Z,100101.25
2023-11-16T08:24:29.112Z,100103.88
2023-11-16T08:26:59.958Z,100120.28
2023-11-16T08:29:27.111Z,100123.69
2023-11-16T08:31:58.256Z,100124.53
2023-11-16T08:34:28.129Z,100121.91
2023-11-16T08:36:54.789Z,100123.66
2023-11-16T08:39:21.485Z,100123.63
2023-11-16T08:41:49.965Z,100125.28
2023-11-16T08:44:19.717Z,100118.38
2023-11-16T08:46:53.673Z,100128.72
2023-11-16T08:49:20.626Z,100121.81
2023-11-16T08:51:48.733Z,100114.00
2023-11-16T08:54:15.833Z,100113.16
2023-11-16T08:56:44.502Z,100104.50
2023-11-16T08:59:12.603Z,100102.75
2023-11-16T09:01:40.047Z,100097.47
2023-11-16T09:04:07.909Z,100100.88
2023-11-16T09:06:35.219Z,100109.47
2023-11-16T09:09:20.517Z,100099.09
2023-11-16T09:11:48.297Z,100111.03
2023-11-16T09:14:15.025Z,100112.75
2023-11-16T09:16:43.587Z,100105.78
2023-11-16T09:19:12.811Z,100096.28
2023-11-16T09:21:41.523Z,100112.72
2023-11-16T09:24:09.075Z,100098.78
2023-11-16T09:26:35.588Z,100099.59
2023-11-16T09:29:07.988Z,100094.22
2023-11-16T09:31:37.993Z,100088.09
2023-11-16T09:34:04.714Z,100093.13
2023-11-16T09:36:31.301Z,100081.81
2023-11-16T09:38:58.835Z,100075.78
2023-11-16T09:41:29.927Z,100059.31
2023-11-16T09:44:03.218Z,100070.59
2023-11-16T09:46:32.773Z,100059.06
2023-11-16T09:49:00.123Z,100066.84
2023-11-16T09:51:30.861Z,100059.06
2023-11-16T09:54:02.254Z,100062.44
2023-11-16T09:56:36.526Z,100048.59
2023-11-16T09:59:26.722Z,100054.66
2023-11-16T10:02:08.640Z,100061.25
2023-11-16T10:04:36.385Z,100061.31
2023-11-16T10:07:06.547Z,100043.84
2023-11-16T10:09:54.322Z,100052.41
2023-11-16T10:12:21.712Z,100043.75
2023-11-16T10:14:53.969Z,100048.25
2023-11-16T10:17:23.004Z,100048.31
2023-11-16T10:19:51.572Z,100039.56
2023-11-16T10:22:18.449Z,100025.72
2023-11-16T10:24:46.069Z,100029.88
2023-11-16T10:27:13.032Z,100027.31
2023-11-16T10:29:41.052Z,100028.94
2023-11-16T10:32:10.530Z,100024.59
2023-11-16T10:34:38.276Z,100026.16
2023-11-16T10:37:06.162Z,100012.25
2023-11-16T10:39:32.776Z,100015.84
2023-11-16T10:42:04.963Z,100015.59
2023-11-16T10:44:33.055Z,100019.31
2023-11-16T10:47:02.434Z,100010.53
2023-11-16T10:49:30.296Z,99999.25
2023-11-16T10:52:02.201Z,99997.44
2023-11-16T10:54:33.504Z,100003.50
2023-11-16T10:57:00.425Z,99997.44
2023-11-16T10:59:28.790Z,99991.22
2023-11-16T11:01:56.150Z,99999.72
2023-11-16T11:04:23.994Z,99994.28
2023-11-16T11:06:52.229Z,99998.09
2023-11-16T11:09:24.006Z,99990.97
2023-11-16T11:11:52.979Z,99991.66
2023-11-16T11:14:27.302Z,99992.44
2023-11-16T11:16:54.047Z,99987.31
2023-11-16T11:19:32.202Z,99971.09
2023-11-16T11:22:02.151Z,99974.22
2023-11-16T11:24:30.284Z,99968.47
2023-11-16T11:27:01.786Z,99964.06
2023-11-16T11:29:29.075Z,99958.84
2023-11-16T11:32:08.848Z,99970.75
2023-11-16T11:34:40.475Z,99962.94
2023-11-16T11:37:14.453Z,99956.50
2023-11-16T11:39:43.123Z,99960.16
2023-11-16T11:42:11.506Z,99956.69
2023-11-16T11:44:38.209Z,99926.31
2023-11-16T11:47:05.504Z,99937.13
2023-11-16T11:49:32.071Z,99944.28
2023-11-16T11:52:00.892Z,99936.56
2023-11-16T11:54:37.860Z,99927.13
2023-11-16T11:57:06.358Z,99922.59
2023-11-16T11:59:33.244Z,99926.88
2023-11-16T12:02:10.535Z,99934.84
2023-11-16T12:04:38.093Z,99927.59
2023-11-16T12:07:08.697Z,99932.84
2023-11-16T12:09:39.597Z,99921.50
2023-11-16T12:12:07.259Z,99925.00
2023-11-16T12:14:50.431Z,99917.16
2023-11-16T12:17:18.411Z,99900.16
2023-11-16T12:19:49.895Z,99921.44
2023-11-16T12:22:17.502Z,99918.63
2023-11-16T12:24:48.098Z,99907.75
2023-11-16T12:27:16.447Z,99916.44
2023-11-16T12:29:54.168Z,99899.06
2023-11-16T12:32:20.783Z,99901.84
2023-11-16T12:34:49.308Z,99901.88
2023-11-16T12:37:15.823Z,99872.41
2023-11-16T12:39:42.478Z,99889.50
2023-11-16T12:42:09.950Z,99900.75
2023-11-16T12:44:37.107Z,99881.69
2023-11-16T12:47:04.545Z,99879.97
2023-11-16T12:49:31.159Z,99881.63
2023-11-16T12:51:58.066Z,99874.78
2023-11-16T12:54:24.703Z,99867.84
2023-11-16T12:56:53.394Z,99867.13
2023-11-16T12:59:19.952Z,99862.13
2023-11-16T13:01:46.639Z,99861.22
2023-11-16T13:04:14.550Z,99853.16
2023-11-16T13:06:41.356Z,99844.47
2023-11-16T13:09:08.607Z,99850.22
2023-11-16T13:11:38.367Z,99841.50
2023-11-16T13:14:04.946Z,99838.63
2023-11-16T13:16:31.723Z,99850.78
2023-11-16T13:19:00.236Z,99838.47
2023-11-16T13:21:27.002Z,99836.78
2023-11-16T13:23:54.731Z,99833.38
2023-11-16T13:26:22.073Z,99815.03
2023-11-16T13:28:48.695Z,99824.06
2023-11-16T13:31:15.981Z,99821.69
2023-11-16T13:33:42.582Z,99825.72
2023-11-16T13:36:09.679Z,99820.88
2023-11-16T13:38:36.279Z,99832.59
2023-11-16T13:41:03.327Z,99820.97
2023-11-16T13:43:29.813Z,99820.00
2023-11-16T13:45:58.018Z,99823.41
2023-11-16T13:48:25.579Z,99819.22
2023-11-16T13:50:53.520Z,99816.91
2023-11-16T13:53:20.582Z,99807.09
2023-11-16T13:55:47.659Z,99814.56
2023-11-16T13:58:15.088Z,99804.09
2023-11-16T14:00:42.666Z,99805.25
2023-11-16T14:03:11.338Z,99808.09
2023-11-16T14:05:38.080Z,99813.44
2023-11-16T14:08:05.282Z,99806.66
2023-11-16T14:10:31.940Z,99813.69
2023-11-16T14:12:58.618Z,99805.06
2023-11-16T14:15:25.405Z,99802.34
2023-11-16T14:17:53.011Z,99792.25
2023-11-16T14:20:19.826Z,99801.94
2023-11-16T14:22:46.419Z,99797.63
2023-11-16T14:25:13.138Z,99788.50
2023-11-16T14:27:39.834Z,99781.63
2023-11-16T14:30:07.502Z,99793.66
2023-11-16T14:32:34.529Z,99785.81
2023-11-16T14:35:14.679Z,99774.28
2023-11-16T14:37:48.402Z,99769.91
2023-11-16T14:40:15.193Z,99752.81
2023-11-16T14:42:41.932Z,99755.13
2023-11-16T14:45:09.828Z,99760.13
2023-11-16T14:47:39.864Z,99760.72
2023-11-16T14:50:10.306Z,99757.09
2023-11-16T14:52:37.564Z,99742.13
2023-11-16T14:55:04.987Z,99735.53
2023-11-16T14:57:34.294Z,99731.22
2023-11-16T15:00:02.599Z,99740.78
2023-11-16T15:02:29.465Z,99743.25
2023-11-16T15:05:04.941Z,99740.97
2023-11-16T15:07:36.545Z,99733.66
2023-11-16T15:10:12.158Z,99733.72
2023-11-16T15:12:39.178Z,99726.06
2023-11-16T15:15:06.273Z,99721.53
2023-11-16T15:17:32.811Z,99717.31
2023-11-16T15:20:05.556Z,99720.81
2023-11-16T15:22:43.508Z,99717.47
2023-11-16T15:25:10.123Z,99715.69
2023-11-16T15:27:36.633Z,99715.84
2023-11-16T15:30:05.478Z,99706.19
2023-11-16T15:32:33.106Z,99700.16
2023-11-16T15:34:59.733Z,99700.81
2023-11-16T15:37:26.915Z,99700.78
2023-11-16T15:39:56.145Z,99701.63
2023-11-16T15:42:25.278Z,99694.78
2023-11-16T15:44:51.784Z,99681.81
2023-11-16T15:47:18.294Z,99681.88
2023-11-16T15:49:45.173Z,99680.25
2023-11-16T15:52:12.059Z,99676.81
2023-11-16T15:54:38.597Z,99673.41
2023-11-16T15:57:06.367Z,99667.31
2023-11-16T15:59:32.873Z,99674.91
2023-11-16T16:02:00.135Z,99671.38
2023-11-16T16:04:26.941Z,99672.19
2023-11-16T16:06:53.539Z,99670.50
2023-11-16T16:09:20.321Z,99652.47
2023-11-16T16:11:46.833Z,99649.66
2023-11-16T16:14:13.384Z,99645.16
2023-11-16T16:16:40.014Z,99645.09
2023-11-16T16:19:06.672Z,99638.97
2023-11-16T16:21:34.279Z,99639.97
2023-11-16T16:24:00.854Z,99638.34
2023-11-16T16:26:28.095Z,99636.78
2023-11-16T16:28:54.805Z,99629.91
2023-11-16T16:31:23.623Z,99626.44
2023-11-16T16:33:51.105Z,99626.44
2023-11-16T16:36:17.709Z,99622.13
2023-11-16T16:38:44.247Z,99620.38
2023-11-16T16:41:14.012Z,99621.94
2023-11-16T16:43:41.073Z,99614.88
2023-11-16T16:46:18.414Z,99618.44
2023-11-16T16:48:46.450Z,99605.63
2023-11-16T16:51:13.125Z,99617.75
2023-11-16T16:53:39.638Z,99611.63
2023-11-16T16:56:07.653Z,99624.41
2023-11-16T16:58:34.695Z,99605.56
2023-11-16T17:01:01.279Z,99609.81
2023-11-16T17:03:27.898Z,99592.84
2023-11-16T17:05:54.399Z,99597.75
2023-11-16T17:08:20.957Z,99588.41
2023-11-16T17:10:47.676Z,99591.81
2023-11-16T17:13:14.305Z,99589.16
2023-11-16T17:15:41.066Z,99583.84
2023-11-16T17:18:08.116Z,99579.00
2023-11-16T17:20:34.900Z,99570.47
2023-11-16T17:23:01.823Z,99571.25
2023-11-16T17:25:28.665Z,99572.84
2023-11-16T17:27:55.304Z,99565.13
2023-11-16T17:30:22.485Z,99571.25
2023-11-16T17:32:49.077Z,99571.16
2023-11-16T17:35:16.630Z,99587.53
2023-11-16T17:37:43.763Z,99583.19
2023-11-16T17:40:11.243Z,99570.38
2023-11-16T17:42:37.919Z,99580.78
2023-11-16T17:45:06.544Z,99579.97
2023-11-16T17:47:33.184Z,99580.78
2023-11-16T17:50:00.065Z,99587.56
2023-11-16T17:52:26.743Z,99573.66
2023-11-16T17:54:53.330Z,99586.63
2023-11-16T17:57:20.259Z,99584.09
2023-11-16T17:59:47.351Z,99574.78
2023-11-16T18:02:14.786Z,99567.88
2023-11-16T18:04:43.358Z,99559.44
2023-11-16T18:07:10.194Z,99521.53
2023-11-16T18:09:37.645Z,99544.69
2023-11-16T18:12:14.853Z,99535.28
2023-11-16T18:14:42.137Z,99540.41
2023-11-16T18:17:09.006Z,99538.59
2023-11-16T18:19:35.526Z,99533.56
2023-11-16T18:22:02.215Z,99536.94
2023-11-16T18:24:28.914Z,99532.47
2023-11-16T18:26:56.285Z,99531.59
2023-11-16T18:29:23.280Z,99523.28
2023-11-16T18:31:50.948Z,99520.66
2023-11-16T18:34:26.951Z,99524.19
2023-11-16T18:36:53.756Z,99515.50
2023-11-16T18:39:20.335Z,99499.38
2023-11-16T18:41:46.946Z,99502.69
2023-11-16T18:44:13.415Z,99497.47
2023-11-16T18:46:40.510Z,99495.75
2023-11-16T18:49:07.242Z,99493.13
2023-11-16T18:51:37.288Z,99490.53
2023-11-16T18:54:04.273Z,99483.53
2023-11-16T18:56:30.734Z,99470.69
2023-11-16T18:58:57.972Z,99474.97
2023-11-16T19:01:24.584Z,99480.97
2023-11-16T19:03:52.449Z,99472.44
2023-11-16T19:06:19.004Z,99474.09
2023-11-16T19:08:45.792Z,99461.88
2023-11-16T19:11:12.303Z,99453.44
2023-11-16T19:13:41.602Z,99455.84
2023-11-16T19:16:09.439Z,99440.38
2023-11-16T19:18:37.426Z,99439.63
2023-11-16T19:21:05.875Z,99425.81
2023-11-16T19:23:32.674Z,99403.41
2023-11-16T19:25:59.654Z,99410.41
2023-11-16T19:28:28.688Z,99415.50
2023-11-16T19:30:55.863Z,99418.03
2023-11-16T19:33:24.666Z,99417.81
2023-11-16T19:35:51.203Z,99406.47
2023-11-16T19:38:18.294Z,99408.22
2023-11-16T19:40:45.002Z,99409.13
2023-11-16T19:43:12.511Z,99406.81
2023-11-16T19:45:40.155Z,99396.47
2023-11-16T19:48:08.247Z,99405.28
2023-11-16T19:50:39.361Z,99399.28
2023-11-16T19:53:07.067Z,99399.97
2023-11-16T19:55:34.170Z,99403.56
2023-11-16T19:58:00.748Z,99393.97
2023-11-16T20:00:28.089Z,99384.38
2023-11-16T20:02:54.864Z,99392.97
2023-11-16T20:05:21.484Z,99386.16
2023-11-16T20:07:47.947Z,99380.88
2023-11-16T20:10:16.390Z,99379.38
2023-11-16T20:12:43.134Z,99367.34
2023-11-16T20:15:11.837Z,99366.41
2023-11-16T20:17:42.324Z,99350.69
2023-11-16T20:20:15.508Z,99351.53
2023-11-16T20:22:48.579Z,99345.72
2023-11-16T20:25:18.683Z,99346.50
2023-11-16T20:27:46.118Z,99356.06
2023-11-16T20:30:12.966Z,99337.19
2023-11-16T20:32:45.733Z,99342.38
2023-11-16T20:35:13.831Z,99334.75
2023-11-16T20:37:44.059Z,99338.25
2023-11-16T20:40:13.247Z,99349.34
2023-11-16T20:42:43.081Z,99332.28
2023-11-16T20:45:12.934Z,99302.97
2023-11-16T20:47:40.454Z,99311.50
2023-11-16T20:50:08.412Z,99311.50
2023-11-16T20:52:35.636Z,99325.25
2023-11-16T20:55:02.237Z,99309.84
2023-11-16T20:57:28.859Z,99305.66
2023-11-16T20:59:57.199Z,99326.25
2023-11-16T21:02:23.777Z,99296.13
2023-11-16T21:04:50.457Z,99292.59
2023-11-16T21:07:17.856Z,99273.81
2023-11-16T21:09:49.052Z,99260.91
2023-11-16T21:12:15.760Z,99253.22
2023-11-16T21:14:42.254Z,99241.09
2023-11-16T21:17:12.226Z,99235.19
2023-11-16T21:19:39.116Z,99220.44
2023-11-16T21:22:06.317Z,99233.31
2023-11-16T21:24:32.903Z,99207.44
2023-11-16T21:27:00.240Z,99209.19
2023-11-16T21:29:27.221Z,99201.41
2023-11-16T21:31:54.128Z,99196.44
2023-11-16T21:34:21.614Z,99194.06
2023-11-16T21:36:48.426Z,99182.19
2023-11-16T21:39:17.562Z,99202.63
2023-11-16T21:41:45.561Z,99197.38
2023-11-16T21:44:12.993Z,99174.16
2023-11-16T21:46:40.002Z,99164.72
2023-11-16T21:49:07.000Z,99161.19
2023-11-16T21:51:33.497Z,99178.59
2023-11-16T21:53:59.978Z,99168.09
2023-11-16T21:56:26.449Z,99164.59
2023-11-16T21:58:52.909Z,99156.03
2023-11-16T22:01:20.277Z,99160.38
2023-11-16T22:03:47.033Z,99159.50
2023-11-16T22:06:13.668Z,99154.31
2023-11-16T22:08:41.208Z,99144.81
2023-11-16T22:11:07.809Z,99148.06
2023-11-16T22:13:34.409Z,99148.34
2023-11-16T22:16:00.987Z,99164.66
2023-11-16T22:18:27.616Z,99152.59
2023-11-16T22:20:54.130Z,99142.38
2023-11-16T22:23:20.670Z,99132.88
2023-11-16T22:25:47.181Z,99129.44
2023-11-16T22:28:14.835Z,99121.81
2023-11-16T22:30:42.839Z,99115.72
2023-11-16T22:33:09.647Z,99125.16
2023-11-16T22:35:36.698Z,99105.38
2023-11-16T22:38:03.616Z,99111.34
2023-11-16T22:40:31.688Z,99110.53
2023-11-16T22:42:58.387Z,99111.19
2023-11-16T22:45:26.177Z,99106.16
2023-11-16T22:47:53.075Z,99086.28
2023-11-16T22:50:20.390Z,99100.06
2023-11-16T22:52:47.288Z,99079.53
2023-11-16T22:55:15.730Z,99079.50
2023-11-16T22:57:46.376Z,99065.63
2023-11-16T23:00:21.841Z,99066.56
2023-11-16T23:02:48.622Z,99057.91
2023-11-16T23:05:15.367Z,99063.03
2023-11-16T23:07:42.302Z,99070.81
2023-11-16T23:10:11.668Z,99062.97
2023-11-16T23:12:39.096Z,99048.53
2023-11-16T23:15:06.306Z,99059.53
2023-11-16T23:17:32.968Z,99052.56
2023-11-16T23:19:59.603Z,99053.41
2023-11-16T23:22:26.167Z,99044.72
2023-11-16T23:24:52.720Z,99049.81
2023-11-16T23:27:20.200Z,99042.13
2023-11-16T23:29:46.719Z,99031.84
2023-11-16T23:32:13.343Z,99042.03
2023-11-16T23:34:41.694Z,99032.00
2023-11-16T23:37:09.532Z,99032.63
2023-11-16T23:39:36.739Z,99013.81
2023-11-16T23:42:04.501Z,99014.75
2023-11-16T23:44:31.507Z,99011.41
2023-11-16T23:46:58.061Z,99007.88
2023-11-16T23:49:26.965Z,99007.00
2023-11-16T23:51:53.536Z,98995.81
2023-11-16T23:54:20.769Z,98990.66
2023-11-16T23:56:47.474Z,98990.84
2023-11-16T23:59:14.040Z,98977.00
